LFBI/PIS METAR and TAF weather

Enter ICAO airport designator
Station Type Date Time Source
LFBI METAR 2019/08/22 20:00 UTC NOAA

LFBI 222000Z AUTO 01006KT CAVOK 20/08 Q1023 NOSIG


Station Type Date Time Source
LFBI Decoded METAR 2019/08/22 20:00 UTC NOAA

Station name not available
Aug 22, 2019 - 04:00 PM EDT / 2019.08.22 2000 UTC
Wind: from the N (010 degrees) at 7 MPH (6 KT):0
Visibility: greater than 7 mile(s):0
Temperature: 68 F (20 C)
Dew Point: 46 F (8 C)
Relative Humidity: 45%
Pressure (altimeter): 30.21 in. Hg (1023 hPa)
ob: LFBI 222000Z AUTO 01006KT CAVOK 20/08 Q1023 NOSIG
cycle: 20

Station Type Date Time Source
LFBI TAF 2019/08/22 18:21 UTC NOAA

TAF LFBI 221700Z 2218/2318 04006KT CAVOK

Example: see airport list